Time;durP1;ratioP1;P1;durP2;ratioP2;P2;SDS_P1;SDS_P2;PMS_P1;PMS_P2;Temp;Humidity;BMP_temperature;BMP_pressure;BME280_temperature;BME280_humidity;BME280_pressure;Samples;Min_cycle;Max_cycle;Signal;HPM_P1;HPM_P2
2022/01/27 06:52:53;;;;;;;56.70;31.27;;;;;;;;;;5129130;27;20774;-60
2022/01/27 06:55:21;;;;;;;61.28;32.15;;;;;;;;;;5129091;28;20368;-61
2022/01/27 06:57:47;;;;;;;62.90;31.23;;;;;;;;;;5128963;27;20069;-61
2022/01/27 07:00:13;;;;;;;61.33;32.65;;;;;;;;;;5129158;28;20023;-60
2022/01/27 07:02:39;;;;;;;58.17;29.63;;;;;;;;;;5129211;28;20027;-61
2022/01/27 07:05:06;;;;;;;55.60;29.40;;;;;;;;;;5129117;28;20019;-63
2022/01/27 07:08:38;;;;;;;68.05;34.47;;;;;;;;;;5068414;28;20909;-63
2022/01/27 07:11:04;;;;;;;60.45;32.30;;;;;;;;;;5068461;28;20032;-64
2022/01/27 07:13:30;;;;;;;75.35;37.88;;;;;;;;;;5068176;28;20523;-63
2022/01/27 07:15:57;;;;;;;81.25;39.38;;;;;;;;;;5068706;28;20025;-63
2022/01/27 07:18:23;;;;;;;66.25;33.55;;;;;;;;;;5068353;28;20017;-63
2022/01/27 07:20:49;;;;;;;61.65;30.25;;;;;;;;;;5068152;28;20029;-62
2022/01/27 07:23:15;;;;;;;56.47;28.80;;;;;;;;;;5067988;28;20023;-64
2022/01/27 07:25:41;;;;;;;56.40;28.35;;;;;;;;;;5066965;28;20451;-61
2022/01/27 07:28:07;;;;;;;59.47;32.00;;;;;;;;;;5066044;28;20098;-61
2022/01/27 07:30:33;;;;;;;60.85;30.27;;;;;;;;;;5066155;28;20383;-63
2022/01/27 07:32:59;;;;;;;59.83;30.98;;;;;;;;;;5061085;28;20023;-62
2022/01/27 07:35:25;;;;;;;59.55;30.55;;;;;;;;;;5066600;28;20017;-61
2022/01/27 07:37:52;;;;;;;59.03;30.75;;;;;;;;;;5065281;28;20037;-62
2022/01/27 07:40:18;;;;;;;65.45;32.15;;;;;;;;;;5067396;28;20066;-64
2022/01/27 07:42:44;;;;;;;58.58;29.10;;;;;;;;;;5066957;28;20376;-60
2022/01/27 07:45:10;;;;;;;51.85;28.35;;;;;;;;;;5066360;28;20415;-62
2022/01/27 07:47:36;;;;;;;71.47;33.72;;;;;;;;;;5052415;28;20041;-62
2022/01/27 07:50:03;;;;;;;48.67;25.77;;;;;;;;;;5066244;28;20388;-63
2022/01/27 07:52:29;;;;;;;63.95;31.67;;;;;;;;;;5057132;28;20021;-63
2022/01/27 07:54:55;;;;;;;53.83;28.33;;;;;;;;;;5055927;28;20031;-63
2022/01/27 07:57:21;;;;;;;51.63;27.08;;;;;;;;;;5057242;28;20012;-63
2022/01/27 07:59:47;;;;;;;49.40;26.27;;;;;;;;;;5055722;28;20018;-63
2022/01/27 08:02:13;;;;;;;42.88;24.80;;;;;;;;;;5056122;28;20094;-63
2022/01/27 08:04:39;;;;;;;42.80;24.73;;;;;;;;;;5054552;28;20021;-63
2022/01/27 08:07:08;;;;;;;47.13;25.17;;;;;;;;;;5056479;28;20045;-63
2022/01/27 08:09:34;;;;;;;47.55;25.45;;;;;;;;;;5051780;28;20029;-63
2022/01/27 08:12:00;;;;;;;51.40;25.73;;;;;;;;;;5047295;28;20032;-63
2022/01/27 08:14:26;;;;;;;47.22;23.67;;;;;;;;;;5047173;28;20092;-63
2022/01/27 08:16:52;;;;;;;48.80;25.92;;;;;;;;;;5047270;28;20021;-63
2022/01/27 08:19:18;;;;;;;50.50;26.90;;;;;;;;;;5037695;28;20024;-63
2022/01/27 08:21:44;;;;;;;52.35;29.05;;;;;;;;;;5033476;28;20105;-63
2022/01/27 08:24:11;;;;;;;51.33;27.17;;;;;;;;;;5033768;28;20065;-63
2022/01/27 08:26:41;;;;;;;50.08;26.42;;;;;;;;;;5033847;28;20044;-63
2022/01/27 08:29:34;;;;;;;45.13;24.92;;;;;;;;;;5033534;28;20536;-63
2022/01/27 08:34:28;;;;;;;48.05;26.60;;;;;;;;;;5033839;28;20061;-63
2022/01/27 08:36:55;;;;;;;49.72;25.38;;;;;;;;;;5033310;28;20060;-63
2022/01/27 08:39:21;;;;;;;49.33;25.60;;;;;;;;;;5036510;28;20029;-62
2022/01/27 08:41:47;;;;;;;49.90;25.92;;;;;;;;;;5041190;28;20025;-63
2022/01/27 08:44:13;;;;;;;46.33;24.58;;;;;;;;;;5051613;28;20510;-63
2022/01/27 08:46:39;;;;;;;44.97;24.35;;;;;;;;;;5039629;28;20037;-61
2022/01/27 08:49:06;;;;;;;45.78;24.85;;;;;;;;;;5041385;28;20064;-63
2022/01/27 08:51:32;;;;;;;49.58;26.77;;;;;;;;;;5042904;28;20025;-62
2022/01/27 08:53:58;;;;;;;44.78;23.83;;;;;;;;;;5041212;28;20036;-61
2022/01/27 08:56:24;;;;;;;45.35;24.33;;;;;;;;;;5041767;28;20029;-62
2022/01/27 08:58:50;;;;;;;46.67;24.75;;;;;;;;;;5042522;28;20049;-62
2022/01/27 09:01:17;;;;;;;48.75;25.95;;;;;;;;;;5041598;28;20025;-63
2022/01/27 09:03:43;;;;;;;52.53;25.88;;;;;;;;;;5041612;28;20031;-63
2022/01/27 09:06:09;;;;;;;49.17;26.23;;;;;;;;;;5042281;28;20496;-63
2022/01/27 09:08:35;;;;;;;49.45;26.45;;;;;;;;;;5040098;28;20038;-63
2022/01/27 09:11:01;;;;;;;55.47;28.73;;;;;;;;;;5041926;28;20075;-62
2022/01/27 09:13:27;;;;;;;55.47;29.20;;;;;;;;;;5042399;28;20052;-62
2022/01/27 09:15:58;;;;;;;55.25;29.42;;;;;;;;;;5036092;28;20397;-61
2022/01/27 09:18:24;;;;;;;59.28;30.52;;;;;;;;;;5032784;28;20108;-62
2022/01/27 09:20:50;;;;;;;55.78;30.25;;;;;;;;;;5032253;28;20029;-62
2022/01/27 09:23:17;;;;;;;58.05;30.10;;;;;;;;;;5037538;28;20061;-62
2022/01/27 09:25:46;;;;;;;52.90;29.90;;;;;;;;;;5040458;28;20033;-62
2022/01/27 09:28:13;;;;;;;56.22;30.17;;;;;;;;;;5040275;28;20033;-62
2022/01/27 09:30:40;;;;;;;57.33;30.75;;;;;;;;;;5050954;28;20056;-62
2022/01/27 09:33:06;;;;;;;53.95;30.20;;;;;;;;;;5045929;28;20025;-60
2022/01/27 09:35:32;;;;;;;58.10;30.27;;;;;;;;;;5052411;28;20029;-64
2022/01/27 09:37:59;;;;;;;54.22;29.02;;;;;;;;;;5052148;28;20065;-63
2022/01/27 09:40:25;;;;;;;51.83;27.65;;;;;;;;;;5052585;28;20033;-61
2022/01/27 09:42:54;;;;;;;55.60;28.17;;;;;;;;;;5052247;28;20097;-60
2022/01/27 09:45:20;;;;;;;55.70;28.00;;;;;;;;;;5051940;28;20024;-61
2022/01/27 09:47:54;;;;;;;49.60;26.23;;;;;;;;;;5051921;28;20028;-62
2022/01/27 09:52:54;;;;;;;45.88;24.52;;;;;;;;;;5046239;28;20477;-60
2022/01/27 09:55:20;;;;;;;45.40;24.60;;;;;;;;;;5041968;28;20036;-62
2022/01/27 09:57:46;;;;;;;42.10;23.15;;;;;;;;;;5045434;28;20048;-62
2022/01/27 10:00:12;;;;;;;50.67;27.15;;;;;;;;;;5046063;28;20029;-61
2022/01/27 10:02:39;;;;;;;51.53;28.05;;;;;;;;;;5051388;28;20447;-62
2022/01/27 10:05:06;;;;;;;47.15;26.05;;;;;;;;;;5050268;28;20408;-61
2022/01/27 10:07:42;;;;;;;42.42;23.27;;;;;;;;;;5051212;28;20584;-63
2022/01/27 10:10:14;;;;;;;37.40;20.98;;;;;;;;;;5051313;28;20068;-62
2022/01/27 10:12:53;;;;;;;38.78;22.33;;;;;;;;;;5051000;28;20023;-64
2022/01/27 10:15:21;;;;;;;43.70;23.13;;;;;;;;;;5051131;28;20389;-63
2022/01/27 10:18:06;;;;;;;46.60;23.42;;;;;;;;;;5051330;28;20033;-61
2022/01/27 10:20:32;;;;;;;47.88;26.85;;;;;;;;;;5045445;28;20617;-61
2022/01/27 10:23:09;;;;;;;49.58;26.40;;;;;;;;;;5050714;28;20528;-62
2022/01/27 10:25:45;;;;;;;51.15;28.33;;;;;;;;;;5043664;28;20029;-62
2022/01/27 10:28:22;;;;;;;53.67;29.50;;;;;;;;;;5030633;28;20413;-62
2022/01/27 10:30:53;;;;;;;48.38;25.35;;;;;;;;;;5030875;28;20424;-62
2022/01/27 10:33:19;;;;;;;46.53;23.38;;;;;;;;;;5030694;28;20387;-61
2022/01/27 10:35:45;;;;;;;42.05;24.00;;;;;;;;;;5030922;28;20375;-63
2022/01/27 10:38:13;;;;;;;43.35;22.95;;;;;;;;;;5034208;28;20065;-61
2022/01/27 10:40:45;;;;;;;41.63;23.15;;;;;;;;;;5045355;28;20044;-62
2022/01/27 10:43:15;;;;;;;40.78;20.73;;;;;;;;;;5033536;28;20026;-63
2022/01/27 10:46:00;;;;;;;37.55;19.55;;;;;;;;;;5030661;28;20037;-63
2022/01/27 10:48:30;;;;;;;38.90;21.10;;;;;;;;;;5031079;28;20036;-62
2022/01/27 10:51:08;;;;;;;36.08;19.23;;;;;;;;;;5034156;28;20111;-63
2022/01/27 10:53:49;;;;;;;40.70;21.02;;;;;;;;;;5050625;28;20158;-63
2022/01/27 10:56:18;;;;;;;39.95;20.85;;;;;;;;;;5050861;28;20035;-63
2022/01/27 10:58:44;;;;;;;33.08;19.13;;;;;;;;;;5050066;28;20036;-62
2022/01/27 11:01:11;;;;;;;37.35;19.85;;;;;;;;;;5050811;28;20025;-63
2022/01/27 11:03:37;;;;;;;41.55;20.88;;;;;;;;;;5032282;28;20044;-62
2022/01/27 11:06:09;;;;;;;39.30;20.20;;;;;;;;;;5030883;28;20096;-63
2022/01/27 11:08:36;;;;;;;38.53;20.60;;;;;;;;;;5030393;28;20046;-62
2022/01/27 11:11:03;;;;;;;35.05;20.08;;;;;;;;;;5030789;28;20029;-63
2022/01/27 11:13:29;;;;;;;39.35;21.55;;;;;;;;;;5030467;28;20029;-63
2022/01/27 11:15:55;;;;;;;40.22;22.00;;;;;;;;;;5030976;28;20123;-62
2022/01/27 11:18:24;;;;;;;39.70;21.75;;;;;;;;;;5040186;28;20436;-61
2022/01/27 11:20:58;;;;;;;40.75;22.20;;;;;;;;;;5035737;28;20044;-61
2022/01/27 11:26:06;;;;;;;40.60;22.42;;;;;;;;;;5037942;28;20511;-65
2022/01/27 11:28:33;;;;;;;38.00;21.00;;;;;;;;;;5039402;28;20045;-62
2022/01/27 11:31:03;;;;;;;40.30;21.52;;;;;;;;;;5035860;28;20380;-62
2022/01/27 11:33:33;;;;;;;38.13;20.02;;;;;;;;;;5032495;28;20065;-62
2022/01/27 11:36:12;;;;;;;35.65;17.27;;;;;;;;;;5048184;28;20029;-63
2022/01/27 11:38:39;;;;;;;34.67;19.23;;;;;;;;;;5049792;28;20552;-62
2022/01/27 11:41:05;;;;;;;41.65;21.67;;;;;;;;;;5049953;28;20103;-62
2022/01/27 11:43:35;;;;;;;37.00;20.02;;;;;;;;;;5037370;28;20046;-61
2022/01/27 11:46:12;;;;;;;37.45;20.40;;;;;;;;;;5037104;28;20056;-61
2022/01/27 11:48:39;;;;;;;37.35;20.38;;;;;;;;;;5036046;28;20481;-61
2022/01/27 11:51:13;;;;;;;38.25;20.30;;;;;;;;;;5038668;28;20421;-62
2022/01/27 11:53:43;;;;;;;39.17;22.83;;;;;;;;;;5042776;28;20695;-61
2022/01/27 11:56:31;;;;;;;41.97;23.15;;;;;;;;;;5054574;28;20024;-61
2022/01/27 11:58:59;;;;;;;50.00;24.63;;;;;;;;;;5044950;28;20073;-62
2022/01/27 12:01:25;;;;;;;52.90;26.60;;;;;;;;;;5042345;28;20045;-60
2022/01/27 12:04:07;;;;;;;53.22;27.30;;;;;;;;;;5041147;28;20528;-62
2022/01/27 12:06:37;;;;;;;53.33;26.67;;;;;;;;;;5051447;28;20049;-61
2022/01/27 12:09:18;;;;;;;51.50;25.73;;;;;;;;;;5051468;28;20473;-61
2022/01/27 12:11:48;;;;;;;49.53;25.60;;;;;;;;;;5039065;28;20034;-61
2022/01/27 12:14:16;;;;;;;48.42;24.52;;;;;;;;;;5033576;28;20033;-62
2022/01/27 12:19:14;;;;;;;48.80;24.40;;;;;;;;;;5027630;28;20025;-62
2022/01/27 12:21:54;;;;;;;40.72;23.33;;;;;;;;;;5036732;28;20029;-62
2022/01/27 12:24:25;;;;;;;42.38;21.50;;;;;;;;;;5037781;28;20048;-60
2022/01/27 12:26:51;;;;;;;42.20;22.35;;;;;;;;;;5048394;28;20041;-62
2022/01/27 12:29:36;;;;;;;47.95;25.75;;;;;;;;;;5041176;28;20064;-62
2022/01/27 12:32:03;;;;;;;42.50;22.67;;;;;;;;;;5043151;28;20045;-61
2022/01/27 12:40:53;;;;;;;35.45;19.20;;;;;;;;;;5033412;28;20852;-61
2022/01/27 12:43:19;;;;;;;38.10;20.13;;;;;;;;;;5035741;28;20471;-62
2022/01/27 12:45:45;;;;;;;40.83;20.90;;;;;;;;;;5037149;28;20027;-61
2022/01/27 12:48:20;;;;;;;42.05;21.40;;;;;;;;;;5033714;28;20116;-63
2022/01/27 12:50:47;;;;;;;42.25;21.67;;;;;;;;;;5041306;28;20056;-61
2022/01/27 12:53:14;;;;;;;36.95;20.60;;;;;;;;;;5047637;28;20028;-61
2022/01/27 12:55:41;;;;;;;41.17;20.95;;;;;;;;;;5052288;28;20044;-62
2022/01/27 12:58:08;;;;;;;37.28;19.90;;;;;;;;;;5051630;28;20115;-62
2022/01/27 13:00:37;;;;;;;37.78;19.30;;;;;;;;;;5051676;28;20029;-62
2022/01/27 13:03:04;;;;;;;38.40;19.17;;;;;;;;;;5046242;28;20033;-61
2022/01/27 13:05:50;;;;;;;37.50;19.27;;;;;;;;;;5051757;28;20105;-61
2022/01/27 13:08:18;;;;;;;38.83;20.98;;;;;;;;;;5043760;28;20045;-61
2022/01/27 13:10:52;;;;;;;39.28;21.30;;;;;;;;;;5035723;28;20021;-61
2022/01/27 13:13:22;;;;;;;40.15;21.33;;;;;;;;;;5039777;28;20029;-61
2022/01/27 13:15:58;;;;;;;41.67;20.02;;;;;;;;;;5040628;28;20061;-61
2022/01/27 13:18:40;;;;;;;39.75;20.40;;;;;;;;;;5040882;28;20049;-60
2022/01/27 13:21:17;;;;;;;29.43;14.57;;;;;;;;;;5040224;28;20025;-60
2022/01/27 13:23:46;;;;;;;41.58;20.85;;;;;;;;;;5041452;28;20045;-63
2022/01/27 13:26:16;;;;;;;41.50;20.92;;;;;;;;;;5039849;28;20014;-61
2022/01/27 13:28:43;;;;;;;41.20;21.67;;;;;;;;;;5041530;28;20041;-60
2022/01/27 13:31:12;;;;;;;39.65;20.40;;;;;;;;;;5041495;28;20569;-61
2022/01/27 13:33:43;;;;;;;41.60;20.83;;;;;;;;;;5046199;28;20037;-61
2022/01/27 13:36:16;;;;;;;37.00;20.15;;;;;;;;;;5042306;28;20499;-60
2022/01/27 13:39:00;;;;;;;39.92;20.25;;;;;;;;;;5034104;28;20034;-61
2022/01/27 13:41:28;;;;;;;40.83;21.02;;;;;;;;;;5036872;28;20033;-60
2022/01/27 13:44:02;;;;;;;39.83;21.27;;;;;;;;;;5041669;28;20029;-61
2022/01/27 13:46:34;;;;;;;39.75;20.08;;;;;;;;;;5040643;28;20492;-60
2022/01/27 13:49:00;;;;;;;;;;;;;;;;;;5051741;28;20364;-60
2022/01/27 13:51:26;;;;;;;43.45;21.42;;;;;;;;;;5036611;28;19920;-61
2022/01/27 13:53:59;;;;;;;39.67;21.80;;;;;;;;;;5038769;28;20104;-60
2022/01/27 14:02:50;;;;;;;41.38;21.15;;;;;;;;;;5046222;28;20059;-60
2022/01/27 14:05:29;;;;;;;42.17;22.00;;;;;;;;;;5043753;28;20041;-60
2022/01/27 14:07:57;;;;;;;45.45;22.95;;;;;;;;;;5049220;28;20052;-60
2022/01/27 14:10:26;;;;;;;44.45;24.33;;;;;;;;;;5048989;28;20771;-61
2022/01/27 14:13:16;;;;;;;44.00;23.77;;;;;;;;;;5047307;28;20416;-60
2022/01/27 14:16:08;;;;;;;45.83;24.50;;;;;;;;;;5039037;28;20508;-61
2022/01/27 14:21:26;;;;;;;50.25;25.35;;;;;;;;;;5041115;28;20432;-61
2022/01/27 14:28:49;;;;;;;46.80;24.75;;;;;;;;;;5031100;28;20057;-61
2022/01/27 14:31:16;;;;;;;43.70;23.52;;;;;;;;;;5031544;28;20045;-62
2022/01/27 14:33:42;;;;;;;46.65;23.60;;;;;;;;;;5031816;28;20025;-61
2022/01/27 14:36:08;;;;;;;46.03;22.48;;;;;;;;;;5050685;28;20060;-62
2022/01/27 14:38:34;;;;;;;48.08;23.98;;;;;;;;;;5051040;28;20029;-62
2022/01/27 14:41:01;;;;;;;49.25;24.35;;;;;;;;;;5051583;28;20538;-62
2022/01/27 14:43:29;;;;;;;46.67;24.42;;;;;;;;;;5042579;28;20468;-62
2022/01/27 14:45:55;;;;;;;55.42;26.45;;;;;;;;;;5037319;28;20457;-62
2022/01/27 14:48:22;;;;;;;57.08;27.90;;;;;;;;;;5030045;28;20485;-62
2022/01/27 14:50:48;;;;;;;58.22;29.05;;;;;;;;;;5030636;28;20026;-62
2022/01/27 14:53:14;;;;;;;54.72;28.00;;;;;;;;;;5030304;28;20460;-62
2022/01/27 14:55:40;;;;;;;60.58;30.77;;;;;;;;;;5030587;28;20040;-63
2022/01/27 14:58:06;;;;;;;60.72;29.55;;;;;;;;;;5030109;28;20053;-62
2022/01/27 15:00:32;;;;;;;59.28;30.38;;;;;;;;;;5030299;28;20083;-61
2022/01/27 15:02:58;;;;;;;65.07;31.63;;;;;;;;;;5030910;28;20044;-62
2022/01/27 15:05:24;;;;;;;64.93;30.38;;;;;;;;;;5031157;28;20435;-62
2022/01/27 15:07:50;;;;;;;56.50;29.15;;;;;;;;;;5030284;28;20136;-62
2022/01/27 15:10:20;;;;;;;60.80;31.48;;;;;;;;;;5030681;28;20021;-62
2022/01/27 15:12:46;;;;;;;77.07;36.72;;;;;;;;;;5030380;28;20022;-62
2022/01/27 15:20:41;;;;;;;63.90;32.90;;;;;;;;;;5030394;28;20121;-60
2022/01/27 15:23:08;;;;;;;72.63;34.30;;;;;;;;;;5036745;28;20033;-61
2022/01/27 15:25:34;;;;;;;72.22;35.17;;;;;;;;;;5037179;28;20071;-61
2022/01/27 15:28:00;;;;;;;74.15;35.47;;;;;;;;;;5039704;28;20064;-60
2022/01/27 15:30:26;;;;;;;73.53;37.00;;;;;;;;;;5040502;28;20528;-62
2022/01/27 15:32:53;;;;;;;76.20;37.80;;;;;;;;;;5042660;28;20037;-61
2022/01/27 15:35:20;;;;;;;78.90;39.08;;;;;;;;;;5042504;28;20021;-61
2022/01/27 15:37:46;;;;;;;93.25;42.38;;;;;;;;;;5041802;28;20495;-62
2022/01/27 15:40:15;;;;;;;80.05;40.05;;;;;;;;;;5042458;28;20022;-61
2022/01/27 15:42:42;;;;;;;85.80;42.53;;;;;;;;;;5037443;28;20088;-60
2022/01/27 15:45:08;;;;;;;93.45;45.78;;;;;;;;;;5042133;28;20684;-60
2022/01/27 15:47:35;;;;;;;101.82;46.30;;;;;;;;;;5042727;28;20036;-60
2022/01/27 15:50:01;;;;;;;97.57;47.13;;;;;;;;;;5043987;28;20491;-60
2022/01/27 15:52:31;;;;;;;98.72;47.05;;;;;;;;;;5041717;28;20388;-61
2022/01/27 15:54:58;;;;;;;98.28;47.22;;;;;;;;;;5042128;28;20513;-60
2022/01/27 15:57:24;;;;;;;94.47;46.65;;;;;;;;;;5044290;28;20021;-61
2022/01/27 15:59:50;;;;;;;93.88;45.45;;;;;;;;;;5039202;28;20100;-61
2022/01/27 16:02:17;;;;;;;96.03;47.22;;;;;;;;;;5042226;28;20104;-60
2022/01/27 16:04:44;;;;;;;100.53;45.92;;;;;;;;;;5043609;28;20021;-60
2022/01/27 16:07:10;;;;;;;93.72;43.25;;;;;;;;;;5041023;28;20068;-59
2022/01/27 16:09:36;;;;;;;91.78;40.22;;;;;;;;;;5037127;28;20469;-62
2022/01/27 16:12:02;;;;;;;84.50;41.25;;;;;;;;;;5033469;28;20052;-61
2022/01/27 16:14:28;;;;;;;76.90;37.58;;;;;;;;;;5033778;28;20028;-60
2022/01/27 16:16:54;;;;;;;77.70;37.90;;;;;;;;;;5033348;28;20109;-61
2022/01/27 16:19:20;;;;;;;79.45;38.58;;;;;;;;;;5033853;28;20034;-61
2022/01/27 16:21:46;;;;;;;81.00;37.47;;;;;;;;;;5033397;28;20493;-62
2022/01/27 16:24:13;;;;;;;77.00;37.55;;;;;;;;;;5033368;28;20428;-60
2022/01/27 16:26:39;;;;;;;72.80;36.53;;;;;;;;;;5032981;28;20742;-61
2022/01/27 16:29:05;;;;;;;75.50;36.38;;;;;;;;;;5032820;28;20370;-60
2022/01/27 16:31:32;;;;;;;80.15;38.38;;;;;;;;;;5033192;28;20388;-60
2022/01/27 16:33:58;;;;;;;71.30;36.42;;;;;;;;;;5032851;28;20030;-60
2022/01/27 16:36:25;;;;;;;75.05;37.40;;;;;;;;;;5041982;28;20103;-60
2022/01/27 16:38:52;;;;;;;80.20;38.42;;;;;;;;;;5052806;28;20052;-61
2022/01/27 16:41:18;;;;;;;76.95;38.35;;;;;;;;;;5052828;28;20025;-61
2022/01/27 16:43:45;;;;;;;73.30;36.17;;;;;;;;;;5052940;28;20021;-60
2022/01/27 16:46:13;;;;;;;88.28;40.33;;;;;;;;;;5052722;28;20029;-60
2022/01/27 16:48:40;;;;;;;76.45;38.28;;;;;;;;;;5051496;28;20069;-62
2022/01/27 16:51:06;;;;;;;81.82;37.15;;;;;;;;;;5051845;28;20021;-61
2022/01/27 16:53:33;;;;;;;82.65;39.03;;;;;;;;;;5051841;28;20048;-61
2022/01/27 16:56:00;;;;;;;76.88;36.78;;;;;;;;;;5052856;28;20021;-61
2022/01/27 16:58:26;;;;;;;84.45;36.88;;;;;;;;;;5053003;28;20036;-61
2022/01/27 17:00:52;;;;;;;75.53;36.65;;;;;;;;;;5052837;28;20029;-61
2022/01/27 17:03:18;;;;;;;74.20;34.50;;;;;;;;;;5052639;28;20036;-61
2022/01/27 17:05:44;;;;;;;68.68;34.10;;;;;;;;;;5052846;28;20021;-61
2022/01/27 17:08:10;;;;;;;63.55;31.70;;;;;;;;;;5052245;28;20052;-61
2022/01/27 17:10:36;;;;;;;58.38;29.27;;;;;;;;;;5052919;28;20017;-62
2022/01/27 17:13:03;;;;;;;65.93;32.33;;;;;;;;;;5052553;28;20031;-60
2022/01/27 17:15:29;;;;;;;61.53;30.38;;;;;;;;;;5052606;28;20031;-61
2022/01/27 17:17:56;;;;;;;60.15;28.60;;;;;;;;;;5052312;28;20033;-61
2022/01/27 17:20:23;;;;;;;57.10;29.02;;;;;;;;;;5052321;28;20021;-60
2022/01/27 17:22:49;;;;;;;57.83;29.70;;;;;;;;;;5052185;28;20036;-61
2022/01/27 17:25:18;;;;;;;60.30;29.73;;;;;;;;;;5052437;28;20477;-60
2022/01/27 17:27:45;;;;;;;64.78;31.90;;;;;;;;;;5052621;28;20044;-61
2022/01/27 17:30:13;;;;;;;63.50;30.55;;;;;;;;;;5052361;28;20036;-60
2022/01/27 17:32:39;;;;;;;61.85;30.88;;;;;;;;;;5053740;28;20425;-61
2022/01/27 17:35:07;;;;;;;62.38;30.13;;;;;;;;;;5062707;28;20103;-61
2022/01/27 17:37:34;;;;;;;70.72;31.75;;;;;;;;;;5071588;28;20096;-61
2022/01/27 17:40:00;;;;;;;66.15;32.33;;;;;;;;;;5070442;28;20025;-61
2022/01/27 17:42:27;;;;;;;65.45;31.15;;;;;;;;;;5046877;28;20028;-60
2022/01/27 17:45:02;;;;;;;68.03;33.03;;;;;;;;;;5051826;28;20082;-62
2022/01/27 17:47:30;;;;;;;69.80;33.35;;;;;;;;;;5051070;28;20514;-60
2022/01/27 17:49:58;;;;;;;74.18;36.15;;;;;;;;;;5051677;28;20020;-60
2022/01/27 17:52:24;;;;;;;74.35;36.30;;;;;;;;;;5050625;28;20029;-61
2022/01/27 17:54:51;;;;;;;80.25;37.50;;;;;;;;;;5051123;28;20031;-60
2022/01/27 17:57:17;;;;;;;86.95;41.25;;;;;;;;;;5051421;28;20025;-61
2022/01/27 17:59:43;;;;;;;90.40;43.08;;;;;;;;;;5051272;28;20469;-60
2022/01/27 18:02:09;;;;;;;95.72;45.45;;;;;;;;;;5051301;28;20025;-60
2022/01/27 18:04:39;;;;;;;93.20;43.80;;;;;;;;;;5051652;28;20024;-60
2022/01/27 18:07:05;;;;;;;88.32;41.05;;;;;;;;;;5051316;28;20040;-61
2022/01/27 18:09:33;;;;;;;75.63;35.90;;;;;;;;;;5051657;28;20124;-61
2022/01/27 18:11:59;;;;;;;73.55;35.10;;;;;;;;;;5051238;28;20040;-60
2022/01/27 18:14:27;;;;;;;71.28;33.58;;;;;;;;;;5051386;28;20104;-61
2022/01/27 18:16:56;;;;;;;72.95;34.95;;;;;;;;;;5051522;28;20021;-60
2022/01/27 18:19:22;;;;;;;78.63;35.75;;;;;;;;;;5052278;28;20028;-60
2022/01/27 18:21:48;;;;;;;86.45;38.58;;;;;;;;;;5050239;28;20052;-60
2022/01/27 18:24:14;;;;;;;86.13;37.92;;;;;;;;;;5051319;28;20025;-60
2022/01/27 18:26:41;;;;;;;80.75;37.75;;;;;;;;;;5051005;28;20039;-61
2022/01/27 18:29:07;;;;;;;91.50;41.17;;;;;;;;;;5050994;28;20033;-62
2022/01/27 18:31:34;;;;;;;85.00;39.33;;;;;;;;;;5051179;28;20017;-62
2022/01/27 18:34:00;;;;;;;86.07;40.08;;;;;;;;;;5051121;28;20040;-60
2022/01/27 18:36:26;;;;;;;91.10;41.95;;;;;;;;;;5050302;28;20051;-61
2022/01/27 18:38:52;;;;;;;91.72;42.15;;;;;;;;;;5050350;28;20029;-62
2022/01/27 18:41:19;;;;;;;85.90;40.70;;;;;;;;;;5050362;28;20100;-60
2022/01/27 18:43:45;;;;;;;88.53;41.00;;;;;;;;;;5045155;28;20057;-65
2022/01/27 18:46:11;;;;;;;87.20;40.92;;;;;;;;;;5050494;28;20029;-62
2022/01/27 18:48:39;;;;;;;87.95;40.60;;;;;;;;;;5050386;28;20068;-61
2022/01/27 18:51:06;;;;;;;88.22;39.85;;;;;;;;;;5050424;28;20060;-61
2022/01/27 18:53:32;;;;;;;85.40;39.65;;;;;;;;;;5047014;28;20029;-60
2022/01/27 18:55:58;;;;;;;89.03;41.53;;;;;;;;;;5037462;28;20100;-62
2022/01/27 18:58:25;;;;;;;78.70;37.13;;;;;;;;;;5040667;28;20465;-61
2022/01/27 19:00:51;;;;;;;78.72;35.83;;;;;;;;;;5030797;28;20446;-61
2022/01/27 19:03:18;;;;;;;78.90;37.55;;;;;;;;;;5030850;28;20384;-62
2022/01/27 19:05:44;;;;;;;77.18;37.53;;;;;;;;;;5030585;28;20086;-62
2022/01/27 19:08:11;;;;;;;80.00;37.15;;;;;;;;;;5030433;28;20064;-64
2022/01/27 19:10:37;;;;;;;71.78;35.47;;;;;;;;;;5031024;28;20038;-62
2022/01/27 19:13:05;;;;;;;80.68;35.97;;;;;;;;;;5030438;28;20080;-64
2022/01/27 19:15:33;;;;;;;79.97;37.75;;;;;;;;;;5030458;28;20029;-62
2022/01/27 19:18:00;;;;;;;89.28;38.85;;;;;;;;;;5038355;28;20078;-60
2022/01/27 19:20:26;;;;;;;89.40;40.75;;;;;;;;;;5048597;28;20021;-64
2022/01/27 19:22:54;;;;;;;91.35;41.03;;;;;;;;;;5050558;28;20033;-60
2022/01/27 19:25:21;;;;;;;98.10;41.97;;;;;;;;;;5050091;28;20018;-60
2022/01/27 19:27:47;;;;;;;92.32;41.78;;;;;;;;;;5050201;28;20048;-61
2022/01/27 19:30:14;;;;;;;93.18;41.13;;;;;;;;;;5049413;28;20029;-60
2022/01/27 19:32:45;;;;;;;92.38;41.50;;;;;;;;;;5050115;28;20056;-60
2022/01/27 19:35:14;;;;;;;92.45;44.03;;;;;;;;;;5050128;28;20013;-61
2022/01/27 19:37:41;;;;;;;92.55;42.40;;;;;;;;;;5049912;28;20029;-60
2022/01/27 19:40:08;;;;;;;88.30;39.38;;;;;;;;;;5049869;28;20029;-59
2022/01/27 19:42:34;;;;;;;85.10;40.10;;;;;;;;;;5049916;28;20036;-60
2022/01/27 19:45:01;;;;;;;91.30;41.83;;;;;;;;;;5050010;28;20112;-61
2022/01/27 19:47:27;;;;;;;93.93;42.10;;;;;;;;;;5049687;28;20437;-62
2022/01/27 19:49:54;;;;;;;93.68;42.60;;;;;;;;;;5050216;28;20017;-61
2022/01/27 19:52:26;;;;;;;86.55;38.60;;;;;;;;;;5049922;28;20024;-61
2022/01/27 19:54:52;;;;;;;89.20;40.13;;;;;;;;;;5049864;28;20112;-61
2022/01/27 19:57:18;;;;;;;85.47;39.25;;;;;;;;;;5050156;28;20384;-61
2022/01/27 19:59:44;;;;;;;84.10;39.50;;;;;;;;;;5049808;28;20025;-61
2022/01/27 20:02:13;;;;;;;81.97;37.33;;;;;;;;;;5049182;28;20075;-61
2022/01/27 20:04:39;;;;;;;78.70;36.10;;;;;;;;;;5050031;28;20025;-61
2022/01/27 20:07:10;;;;;;;83.60;38.60;;;;;;;;;;5049726;28;20091;-62
2022/01/27 20:09:36;;;;;;;76.82;38.05;;;;;;;;;;5049895;28;20376;-62
2022/01/27 20:12:03;;;;;;;74.28;35.88;;;;;;;;;;5048943;28;20033;-62
2022/01/27 20:14:30;;;;;;;79.40;37.30;;;;;;;;;;5050777;28;20423;-61
2022/01/27 20:16:56;;;;;;;70.30;33.45;;;;;;;;;;5054051;28;20025;-61
2022/01/27 20:19:22;;;;;;;74.60;36.17;;;;;;;;;;5053004;28;20162;-62
2022/01/27 20:21:48;;;;;;;69.47;34.90;;;;;;;;;;5053507;28;20078;-61
2022/01/27 20:24:16;;;;;;;76.60;37.22;;;;;;;;;;5053492;28;20035;-62
2022/01/27 20:26:42;;;;;;;73.07;34.17;;;;;;;;;;5053298;28;20122;-63
2022/01/27 20:29:08;;;;;;;75.95;36.10;;;;;;;;;;5053308;28;20029;-63
2022/01/27 20:31:34;;;;;;;80.35;38.25;;;;;;;;;;5053703;28;20021;-63
2022/01/27 20:34:00;;;;;;;81.22;40.10;;;;;;;;;;5053006;28;20103;-62
2022/01/27 20:36:26;;;;;;;87.50;41.05;;;;;;;;;;5052960;28;20036;-62
2022/01/27 20:38:52;;;;;;;87.75;40.45;;;;;;;;;;5053159;28;20109;-63
2022/01/27 20:41:19;;;;;;;85.25;40.63;;;;;;;;;;5052791;28;20485;-63
2022/01/27 20:43:45;;;;;;;87.50;41.22;;;;;;;;;;5053204;28;20036;-63
2022/01/27 20:46:11;;;;;;;84.25;40.88;;;;;;;;;;5052865;28;20028;-64
2022/01/27 20:48:38;;;;;;;86.72;42.75;;;;;;;;;;5052928;28;20037;-63
2022/01/27 20:51:05;;;;;;;89.97;41.78;;;;;;;;;;5053059;28;20522;-63
2022/01/27 20:53:31;;;;;;;84.80;40.63;;;;;;;;;;5053400;28;20025;-61
2022/01/27 20:55:58;;;;;;;87.70;41.03;;;;;;;;;;5052651;28;20020;-62
2022/01/27 20:58:24;;;;;;;83.05;37.10;;;;;;;;;;5051939;28;20029;-63
2022/01/27 21:00:51;;;;;;;82.85;37.38;;;;;;;;;;5052880;28;20078;-63
2022/01/27 21:03:20;;;;;;;75.10;37.35;;;;;;;;;;5052848;28;20039;-63
2022/01/27 21:05:46;;;;;;;78.18;37.65;;;;;;;;;;5052893;28;20029;-63
2022/01/27 21:08:13;;;;;;;70.68;34.33;;;;;;;;;;5051125;28;20408;-62
2022/01/27 21:10:39;;;;;;;68.20;33.70;;;;;;;;;;5052641;28;20372;-62
2022/01/27 21:13:05;;;;;;;72.05;33.72;;;;;;;;;;5052660;28;20465;-62
2022/01/27 21:15:31;;;;;;;72.03;35.30;;;;;;;;;;5052623;28;20457;-64
2022/01/27 21:17:57;;;;;;;69.13;35.50;;;;;;;;;;5052555;28;20563;-64
2022/01/27 21:20:23;;;;;;;70.75;34.00;;;;;;;;;;5052536;28;20492;-64
2022/01/27 21:22:50;;;;;;;65.00;31.90;;;;;;;;;;5052545;28;20476;-64
2022/01/27 21:25:16;;;;;;;66.72;31.50;;;;;;;;;;5052706;28;20028;-65
2022/01/27 21:27:42;;;;;;;60.95;30.85;;;;;;;;;;5052309;28;20060;-64
2022/01/27 21:30:09;;;;;;;61.83;30.33;;;;;;;;;;5052710;28;20040;-63
2022/01/27 21:32:35;;;;;;;64.32;30.95;;;;;;;;;;5052817;28;20572;-63
2022/01/27 21:35:02;;;;;;;64.38;31.73;;;;;;;;;;5052488;28;20056;-65
2022/01/27 21:37:28;;;;;;;73.68;35.08;;;;;;;;;;5051860;28;20091;-65
2022/01/27 21:39:55;;;;;;;65.60;30.92;;;;;;;;;;5052397;28;20020;-64
2022/01/27 21:42:21;;;;;;;63.80;29.95;;;;;;;;;;5052237;28;20071;-63
2022/01/27 21:44:47;;;;;;;57.92;28.48;;;;;;;;;;5052231;28;20029;-64
2022/01/27 21:47:13;;;;;;;61.42;28.55;;;;;;;;;;5045202;28;20488;-64
2022/01/27 21:49:39;;;;;;;54.90;26.75;;;;;;;;;;5033014;28;20068;-63